createdAt,value
2019-02-15T00:01:18.860Z,42.62
2019-02-15T00:03:44.877Z,42.51
2019-02-15T00:06:10.883Z,42.61
2019-02-15T00:08:36.870Z,42.59
2019-02-15T00:11:02.901Z,42.90
2019-02-15T00:13:28.912Z,42.94
2019-02-15T00:15:54.913Z,42.81
2019-02-15T00:18:20.901Z,43.50
2019-02-15T00:20:46.911Z,43.04
2019-02-15T00:23:12.888Z,43.22
2019-02-15T00:25:38.894Z,43.57
2019-02-15T00:28:04.897Z,43.07
2019-02-15T00:30:30.879Z,43.57
2019-02-15T00:32:56.904Z,43.08
2019-02-15T00:35:22.916Z,43.26
2019-02-15T00:37:48.897Z,43.34
2019-02-15T00:40:14.958Z,43.07
2019-02-15T00:42:40.981Z,43.00
2019-02-15T00:45:06.943Z,43.47
2019-02-15T00:47:32.971Z,43.21
2019-02-15T00:49:58.964Z,43.22
2019-02-15T00:52:24.947Z,43.28
2019-02-15T00:54:50.937Z,43.35
2019-02-15T00:57:16.941Z,43.32
2019-02-15T00:59:42.928Z,43.77
2019-02-15T01:02:08.918Z,43.86
2019-02-15T01:04:34.904Z,43.66
2019-02-15T01:07:00.957Z,43.52
2019-02-15T01:09:26.978Z,43.97
2019-02-15T01:11:52.992Z,43.68
2019-02-15T01:14:19.027Z,43.88
2019-02-15T01:16:45.100Z,43.61
2019-02-15T01:19:11.080Z,43.68
2019-02-15T01:21:37.080Z,44.17
2019-02-15T01:24:03.092Z,43.50
2019-02-15T01:26:29.111Z,42.91
2019-02-15T01:28:55.100Z,43.71
2019-02-15T01:31:21.078Z,44.08
2019-02-15T01:33:47.076Z,44.07
2019-02-15T01:36:13.054Z,43.76
2019-02-15T01:38:39.033Z,43.95
2019-02-15T01:41:05.048Z,44.04
2019-02-15T01:43:39.572Z,43.89
2019-02-15T01:45:58.761Z,43.91
2019-02-15T01:48:24.738Z,44.05
2019-02-15T01:50:50.737Z,43.91
2019-02-15T01:53:16.725Z,44.56
2019-02-15T01:55:42.729Z,44.11
2019-02-15T01:58:08.718Z,44.54
2019-02-15T02:00:34.695Z,44.48
2019-02-15T02:03:00.687Z,44.13
2019-02-15T02:05:26.663Z,43.94
2019-02-15T02:07:52.645Z,44.56
2019-02-15T02:10:18.618Z,44.56
2019-02-15T02:12:44.623Z,44.39
2019-02-15T02:15:10.589Z,44.31
2019-02-15T02:17:36.595Z,44.43
2019-02-15T02:20:02.590Z,44.52
2019-02-15T02:22:28.585Z,44.61
2019-02-15T02:24:54.582Z,43.96
2019-02-15T02:27:20.682Z,42.14
2019-02-15T02:29:46.652Z,41.52
2019-02-15T02:32:12.696Z,41.49
2019-02-15T02:34:38.683Z,41.68
2019-02-15T02:37:04.672Z,41.71
2019-02-15T02:39:30.663Z,41.72
2019-02-15T02:41:56.740Z,41.87
2019-02-15T02:44:22.740Z,41.89
2019-02-15T02:46:48.732Z,41.89
2019-02-15T02:49:14.715Z,41.90
2019-02-15T02:51:40.772Z,41.96
2019-02-15T02:54:06.820Z,41.93
2019-02-15T02:56:32.786Z,42.08
2019-02-15T02:58:58.844Z,42.10
2019-02-15T03:01:24.829Z,42.04
2019-02-15T03:03:50.881Z,42.14
2019-02-15T03:06:16.860Z,42.22
2019-02-15T03:08:42.837Z,42.12
2019-02-15T03:11:08.841Z,42.15
2019-02-15T03:13:34.838Z,42.25
2019-02-15T03:16:00.848Z,42.36
2019-02-15T03:18:26.863Z,42.40
2019-02-15T03:20:52.849Z,42.37
2019-02-15T03:23:19.028Z,42.43
2019-02-15T03:25:45.034Z,42.47
2019-02-15T03:28:11.087Z,42.44
2019-02-15T03:30:37.143Z,42.45
2019-02-15T03:33:03.122Z,42.56
2019-02-15T03:35:29.127Z,42.54
2019-02-15T03:37:55.201Z,42.46
2019-02-15T03:40:21.264Z,42.45
2019-02-15T03:42:47.232Z,42.49
2019-02-15T03:45:13.241Z,42.58
2019-02-15T03:47:39.221Z,42.51
2019-02-15T03:50:05.226Z,42.46
2019-02-15T03:52:31.211Z,42.47
2019-02-15T03:54:57.196Z,42.59
2019-02-15T03:57:23.208Z,42.59
2019-02-15T03:59:49.332Z,42.52
2019-02-15T04:02:15.343Z,42.52
2019-02-15T04:04:41.402Z,42.60
2019-02-15T04:07:07.372Z,42.64
2019-02-15T04:09:33.347Z,42.58
2019-02-15T04:11:59.336Z,42.56
2019-02-15T04:14:32.575Z,42.62
2019-02-15T04:16:53.049Z,42.69
2019-02-15T04:19:19.025Z,42.62
2019-02-15T04:21:45.004Z,42.54
2019-02-15T04:24:13.378Z,42.61
2019-02-15T04:26:38.757Z,42.68
2019-02-15T04:29:04.810Z,42.65
2019-02-15T04:31:30.787Z,42.64
2019-02-15T04:33:56.775Z,42.65
2019-02-15T04:36:22.845Z,42.65
2019-02-15T04:38:48.829Z,42.62
2019-02-15T04:41:14.819Z,42.55
2019-02-15T04:43:40.864Z,42.55
2019-02-15T04:46:06.859Z,42.46
2019-02-15T04:48:32.849Z,42.53
2019-02-15T04:50:58.851Z,42.52
2019-02-15T04:53:24.888Z,42.55
2019-02-15T04:55:50.883Z,42.64
2019-02-15T04:58:16.878Z,42.58
2019-02-15T05:00:42.860Z,42.54
2019-02-15T05:03:08.853Z,42.88
2019-02-15T05:05:34.829Z,42.98
2019-02-15T05:08:00.827Z,42.68
2019-02-15T05:10:26.871Z,42.68
2019-02-15T05:12:52.875Z,42.64
2019-02-15T05:15:18.915Z,42.79
2019-02-15T05:17:44.947Z,42.70
2019-02-15T05:20:10.962Z,42.55
2019-02-15T05:22:36.992Z,42.76
2019-02-15T05:25:02.980Z,42.76
2019-02-15T05:27:28.987Z,42.59
2019-02-15T05:29:54.975Z,42.61
2019-02-15T05:32:20.986Z,42.60
2019-02-15T05:34:46.961Z,42.64
2019-02-15T05:37:12.952Z,42.68
2019-02-15T05:39:38.956Z,42.55
2019-02-15T05:42:05.023Z,42.57
2019-02-15T05:44:31.017Z,42.64
2019-02-15T05:46:57.081Z,42.69
2019-02-15T05:49:23.091Z,42.68
2019-02-15T05:51:49.078Z,42.65
2019-02-15T05:54:15.064Z,42.57
2019-02-15T05:56:41.543Z,42.68
2019-02-15T05:59:07.546Z,42.81
2019-02-15T06:01:33.576Z,42.65
2019-02-15T06:03:59.627Z,42.42
2019-02-15T06:06:25.644Z,42.81
2019-02-15T06:08:51.689Z,42.53
2019-02-15T06:11:17.782Z,42.24
2019-02-15T06:13:43.804Z,42.26
2019-02-15T06:16:09.799Z,42.35
2019-02-15T06:18:35.794Z,42.37
2019-02-15T06:21:01.826Z,42.36
2019-02-15T06:23:27.823Z,42.42
2019-02-15T06:25:53.824Z,42.28
2019-02-15T06:28:19.912Z,42.39
2019-02-15T06:30:47.068Z,42.29
2019-02-15T06:33:13.116Z,42.28
2019-02-15T06:35:39.167Z,42.34
2019-02-15T06:38:05.169Z,42.33
2019-02-15T06:40:31.154Z,42.33
2019-02-15T06:42:57.151Z,42.40
2019-02-15T06:45:25.242Z,42.57
2019-02-15T06:47:50.889Z,42.40
2019-02-15T06:50:16.876Z,42.33
2019-02-15T06:52:42.867Z,42.31
2019-02-15T06:55:08.841Z,42.33
2019-02-15T06:57:34.899Z,42.31
2019-02-15T07:00:00.926Z,42.55
2019-02-15T07:02:27.000Z,42.26
2019-02-15T07:04:52.986Z,43.39
2019-02-15T07:07:19.055Z,43.65
2019-02-15T07:09:45.037Z,43.23
2019-02-15T07:12:11.079Z,42.95
2019-02-15T07:14:37.062Z,42.71
2019-02-15T07:17:03.044Z,42.43
2019-02-15T07:19:29.030Z,42.37
2019-02-15T07:21:55.056Z,42.66
2019-02-15T07:24:21.134Z,42.53
2019-02-15T07:26:47.287Z,42.61
2019-02-15T07:29:13.288Z,42.57
2019-02-15T07:31:39.303Z,42.61
2019-02-15T07:34:05.300Z,42.90
2019-02-15T07:36:31.359Z,42.79
2019-02-15T07:38:57.407Z,42.77
2019-02-15T07:41:23.411Z,42.96
2019-02-15T07:43:49.387Z,42.79
2019-02-15T07:46:15.464Z,42.83
2019-02-15T07:48:41.448Z,42.91
2019-02-15T07:51:09.636Z,42.88
2019-02-15T07:53:35.164Z,42.82
2019-02-15T07:56:01.183Z,42.94
2019-02-15T07:58:27.261Z,43.03
2019-02-15T08:00:53.265Z,42.98
2019-02-15T08:03:19.247Z,43.05
2019-02-15T08:05:45.251Z,43.11
2019-02-15T08:08:11.242Z,43.14
2019-02-15T08:10:38.992Z,43.32
2019-02-15T08:13:04.945Z,43.35
2019-02-15T08:15:36.165Z,43.28
2019-02-15T08:17:58.794Z,43.38
2019-02-15T08:20:24.772Z,43.54
2019-02-15T08:22:50.752Z,43.38
2019-02-15T08:25:16.771Z,43.38
2019-02-15T08:27:42.889Z,43.51
2019-02-15T08:30:08.903Z,43.54
2019-02-15T08:32:34.889Z,43.48
2019-02-15T08:35:00.903Z,43.44
2019-02-15T08:37:26.904Z,43.50
2019-02-15T08:39:52.890Z,43.50
2019-02-15T08:42:18.884Z,43.59
2019-02-15T08:44:44.858Z,43.57
2019-02-15T08:47:10.927Z,43.71
2019-02-15T08:49:36.924Z,43.74
2019-02-15T08:52:02.911Z,43.57
2019-02-15T08:54:28.918Z,43.58
2019-02-15T08:56:54.895Z,44.26
2019-02-15T08:59:20.874Z,44.85
2019-02-15T09:01:46.852Z,44.22
2019-02-15T09:04:12.935Z,43.99
2019-02-15T09:06:38.931Z,44.17
2019-02-15T09:09:04.945Z,44.56
2019-02-15T09:11:30.933Z,45.30
2019-02-15T09:13:56.901Z,44.78
2019-02-15T09:16:22.895Z,44.97
2019-02-15T09:18:48.990Z,44.26
2019-02-15T09:21:14.994Z,44.67
2019-02-15T09:23:40.971Z,44.39
2019-02-15T09:26:06.994Z,44.56
2019-02-15T09:28:32.970Z,44.14
2019-02-15T09:30:58.963Z,44.73
2019-02-15T09:33:24.945Z,44.76
2019-02-15T09:35:50.934Z,55.12
2019-02-15T09:38:16.936Z,48.48
2019-02-15T09:40:42.925Z,45.06
2019-02-15T09:43:09.019Z,44.67
2019-02-15T09:45:35.033Z,44.58
2019-02-15T09:48:01.080Z,45.23
2019-02-15T09:50:27.084Z,44.67
2019-02-15T09:52:53.067Z,44.74
2019-02-15T09:55:19.077Z,44.65
2019-02-15T09:57:45.090Z,44.45
2019-02-15T10:00:11.111Z,45.08
2019-02-15T10:02:37.144Z,44.30
2019-02-15T10:05:03.263Z,44.34
2019-02-15T10:07:29.373Z,44.30
2019-02-15T10:09:55.399Z,44.15
2019-02-15T10:12:21.408Z,44.19
2019-02-15T10:14:47.394Z,44.23
2019-02-15T10:17:13.583Z,44.13
2019-02-15T10:19:39.599Z,44.32
2019-02-15T10:22:05.650Z,44.14
2019-02-15T10:24:31.680Z,44.12
2019-02-15T10:26:57.660Z,44.12
2019-02-15T10:29:23.654Z,44.06
2019-02-15T10:31:49.671Z,44.07
2019-02-15T10:34:15.653Z,43.99
2019-02-15T10:36:41.720Z,44.10
2019-02-15T10:39:07.741Z,44.14
2019-02-15T10:41:33.877Z,44.13
2019-02-15T10:43:59.873Z,44.08
2019-02-15T10:46:25.964Z,44.21
2019-02-15T10:48:51.949Z,44.27
2019-02-15T10:51:17.954Z,44.28
2019-02-15T10:53:43.921Z,44.16
2019-02-15T10:56:09.935Z,44.16
2019-02-15T10:58:35.991Z,44.31
2019-02-15T11:01:01.974Z,44.20
2019-02-15T11:03:27.987Z,44.18
2019-02-15T11:05:54.056Z,44.23
2019-02-15T11:08:20.072Z,44.23
2019-02-15T11:10:46.240Z,44.21
2019-02-15T11:13:12.284Z,44.35
2019-02-15T11:15:38.338Z,44.29
2019-02-15T11:18:04.446Z,44.24
2019-02-15T11:20:30.456Z,44.26
2019-02-15T11:22:56.592Z,44.30
2019-02-15T11:25:22.593Z,44.34
2019-02-15T11:27:48.667Z,44.48
2019-02-15T11:30:14.644Z,44.42
2019-02-15T11:32:40.676Z,44.42
2019-02-15T11:35:06.723Z,44.34
2019-02-15T11:37:32.757Z,44.35
2019-02-15T11:39:58.716Z,44.39
2019-02-15T11:42:24.730Z,44.40
2019-02-15T11:44:50.737Z,44.41
2019-02-15T11:47:16.762Z,44.52
2019-02-15T11:49:42.746Z,44.44
2019-02-15T11:52:08.774Z,44.41
2019-02-15T11:54:34.775Z,44.40
2019-02-15T11:57:00.748Z,44.38
2019-02-15T11:59:26.841Z,44.44
2019-02-15T12:01:52.960Z,44.53
2019-02-15T12:04:18.973Z,44.57
2019-02-15T12:06:44.958Z,44.47
2019-02-15T12:09:10.961Z,44.80
2019-02-15T12:11:37.137Z,44.66
2019-02-15T12:14:03.193Z,44.81
2019-02-15T12:16:29.175Z,44.87
2019-02-15T12:18:55.206Z,45.33
2019-02-15T12:21:21.244Z,45.39
2019-02-15T12:23:47.232Z,44.99
2019-02-15T12:26:13.219Z,44.81
2019-02-15T12:28:39.199Z,45.14
2019-02-15T12:31:05.566Z,45.29
2019-02-15T12:33:31.577Z,44.77
2019-02-15T12:35:57.644Z,44.70
2019-02-15T12:38:23.649Z,44.66
2019-02-15T12:40:49.656Z,44.69
2019-02-15T12:43:15.647Z,44.72
2019-02-15T12:45:41.672Z,44.70
2019-02-15T12:48:07.686Z,44.67
2019-02-15T12:50:33.729Z,52.04
2019-02-15T12:52:59.723Z,46.03
2019-02-15T12:55:28.095Z,45.81
2019-02-15T12:57:53.444Z,45.45
2019-02-15T13:00:19.926Z,45.42
2019-02-15T13:02:46.093Z,45.17
2019-02-15T13:05:12.102Z,45.14
2019-02-15T13:07:38.070Z,44.74
2019-02-15T13:10:04.079Z,44.85
2019-02-15T13:12:31.178Z,44.90
2019-02-15T13:14:57.215Z,45.17
2019-02-15T13:17:25.009Z,45.34
2019-02-15T13:19:50.915Z,45.09
2019-02-15T13:22:16.947Z,45.34
2019-02-15T13:24:43.299Z,45.49
2019-02-15T13:27:09.507Z,45.28
2019-02-15T13:29:36.532Z,45.51
2019-02-15T13:32:02.537Z,45.41
2019-02-15T13:34:28.542Z,45.55
2019-02-15T13:36:54.521Z,45.46
2019-02-15T13:39:20.578Z,45.32
2019-02-15T13:41:46.601Z,45.17
2019-02-15T13:44:12.686Z,45.16
2019-02-15T13:46:38.750Z,45.22
2019-02-15T13:49:04.749Z,45.22
2019-02-15T13:51:30.747Z,45.27
2019-02-15T13:53:56.757Z,45.37
2019-02-15T13:56:22.788Z,45.42
2019-02-15T13:58:48.772Z,45.37
2019-02-15T14:01:14.799Z,45.35
2019-02-15T14:03:40.811Z,45.32
2019-02-15T14:06:06.802Z,45.58
2019-02-15T14:08:32.792Z,45.77
2019-02-15T14:10:58.801Z,45.51
2019-02-15T14:13:24.811Z,45.50
2019-02-15T14:15:50.860Z,45.23
2019-02-15T14:18:16.899Z,45.36
2019-02-15T14:20:42.898Z,45.41
2019-02-15T14:23:08.871Z,45.53
2019-02-15T14:25:34.977Z,45.77
2019-02-15T14:28:01.075Z,46.09
2019-02-15T14:30:27.074Z,46.09
2019-02-15T14:32:53.061Z,46.04
2019-02-15T14:35:19.055Z,46.03
2019-02-15T14:37:45.070Z,46.04
2019-02-15T14:40:11.046Z,46.06
2019-02-15T14:42:37.028Z,46.15
2019-02-15T14:45:03.037Z,46.35
2019-02-15T14:47:29.106Z,46.37
2019-02-15T14:49:55.095Z,46.58
2019-02-15T14:52:21.109Z,46.60
2019-02-15T14:54:47.204Z,46.60
2019-02-15T14:57:13.175Z,46.68
2019-02-15T14:59:39.139Z,46.81
2019-02-15T15:02:05.150Z,46.91
2019-02-15T15:04:31.143Z,46.94
2019-02-15T15:06:57.149Z,46.99
2019-02-15T15:09:23.126Z,47.05
2019-02-15T15:11:49.112Z,47.17
2019-02-15T15:14:15.095Z,47.18
2019-02-15T15:16:41.076Z,47.25
2019-02-15T15:19:07.062Z,47.32
2019-02-15T15:21:34.975Z,47.42
2019-02-15T15:24:00.813Z,47.43
2019-02-15T15:26:26.797Z,47.44
2019-02-15T15:28:52.840Z,47.47
2019-02-15T15:31:18.852Z,47.57
2019-02-15T15:33:44.926Z,47.54
2019-02-15T15:36:10.904Z,47.63
2019-02-15T15:38:36.880Z,47.71
2019-02-15T15:41:02.905Z,47.80
2019-02-15T15:43:29.078Z,47.79
2019-02-15T15:45:55.096Z,47.88
2019-02-15T15:48:22.945Z,47.91
2019-02-15T15:50:48.915Z,47.89
2019-02-15T15:53:15.033Z,47.92
2019-02-15T15:55:41.029Z,47.95
2019-02-15T15:58:07.030Z,48.01
2019-02-15T16:00:38.956Z,48.04
2019-02-15T16:03:00.739Z,48.03
2019-02-15T16:05:26.774Z,48.07
2019-02-15T16:07:52.856Z,48.02
2019-02-15T16:10:18.829Z,47.90
2019-02-15T16:12:44.824Z,47.84
2019-02-15T16:15:10.965Z,47.76
2019-02-15T16:17:37.099Z,47.76
2019-02-15T16:20:03.403Z,47.73
2019-02-15T16:22:29.397Z,47.72
2019-02-15T16:24:55.440Z,47.86
2019-02-15T16:27:21.547Z,47.86
2019-02-15T16:29:47.556Z,47.92
2019-02-15T16:32:13.572Z,47.92
2019-02-15T16:34:39.557Z,47.98
2019-02-15T16:37:05.579Z,48.00
2019-02-15T16:39:31.575Z,48.00
2019-02-15T16:41:57.596Z,48.00
2019-02-15T16:44:23.644Z,48.02
2019-02-15T16:46:49.676Z,48.01
2019-02-15T16:49:15.730Z,48.11
2019-02-15T16:51:41.913Z,48.20
2019-02-15T16:54:07.902Z,48.20
2019-02-15T16:56:34.054Z,48.18
2019-02-15T16:59:00.168Z,48.20
2019-02-15T17:01:26.212Z,48.26
2019-02-15T17:03:52.315Z,48.29
2019-02-15T17:06:18.788Z,48.19
2019-02-15T17:08:44.906Z,48.22
2019-02-15T17:11:10.898Z,48.19
2019-02-15T17:13:36.976Z,48.29
2019-02-15T17:16:02.979Z,48.65
2019-02-15T17:18:28.987Z,48.40
2019-02-15T17:20:55.074Z,48.16
2019-02-15T17:23:22.220Z,48.23
2019-02-15T17:25:48.216Z,48.19
2019-02-15T17:28:14.189Z,48.14
2019-02-15T17:30:40.190Z,48.14
2019-02-15T17:33:06.267Z,48.08
2019-02-15T17:35:32.340Z,48.11
2019-02-15T17:37:58.314Z,48.06
2019-02-15T17:40:24.410Z,48.06
2019-02-15T17:42:50.422Z,48.64
2019-02-15T17:45:16.421Z,49.43
2019-02-15T17:47:42.436Z,48.69
2019-02-15T17:50:08.440Z,48.41
2019-02-15T17:52:34.477Z,48.31
2019-02-15T17:55:00.471Z,48.25
2019-02-15T17:57:26.444Z,48.19
2019-02-15T17:59:52.468Z,48.15
2019-02-15T18:02:18.486Z,48.27
2019-02-15T18:04:44.664Z,48.24
2019-02-15T18:07:10.864Z,48.20
2019-02-15T18:09:36.939Z,48.27
2019-02-15T18:12:02.927Z,48.30
2019-02-15T18:14:28.918Z,48.36
2019-02-15T18:16:54.922Z,48.36
2019-02-15T18:19:20.970Z,48.36
2019-02-15T18:21:47.142Z,48.31
2019-02-15T18:24:13.232Z,48.23
2019-02-15T18:26:39.247Z,47.96
2019-02-15T18:29:05.285Z,47.92
2019-02-15T18:31:31.283Z,47.96
2019-02-15T18:33:57.292Z,47.94
2019-02-15T18:36:23.313Z,47.93
2019-02-15T18:38:49.323Z,47.93
2019-02-15T18:41:15.343Z,47.90
2019-02-15T18:43:41.347Z,48.01
2019-02-15T18:46:07.385Z,48.06
2019-02-15T18:48:33.442Z,48.11
2019-02-15T18:50:59.506Z,48.11
2019-02-15T18:53:25.534Z,48.14
2019-02-15T18:55:51.626Z,48.15
2019-02-15T18:58:17.633Z,48.22
2019-02-15T19:00:43.715Z,48.19
2019-02-15T19:03:09.771Z,48.06
2019-02-15T19:05:35.796Z,48.13
2019-02-15T19:08:01.807Z,48.14
2019-02-15T19:10:27.853Z,48.15
2019-02-15T19:12:53.862Z,48.12
2019-02-15T19:15:19.960Z,48.14
2019-02-15T19:17:46.028Z,48.14
2019-02-15T19:20:12.111Z,48.17
2019-02-15T19:22:38.153Z,48.22
2019-02-15T19:25:04.203Z,48.14
2019-02-15T19:27:30.178Z,48.15
2019-02-15T19:29:56.189Z,48.21
2019-02-15T19:32:22.257Z,48.04
2019-02-15T19:34:48.261Z,48.08
2019-02-15T19:37:14.312Z,48.31
2019-02-15T19:39:40.340Z,48.26
2019-02-15T19:42:06.335Z,48.24
2019-02-15T19:44:32.396Z,48.23
2019-02-15T19:46:58.423Z,48.21
2019-02-15T19:49:24.537Z,48.16
2019-02-15T19:51:50.585Z,48.20
2019-02-15T19:54:16.635Z,48.21
2019-02-15T19:56:42.638Z,48.23
2019-02-15T19:59:08.638Z,48.16
2019-02-15T20:01:34.732Z,48.21
2019-02-15T20:04:00.744Z,48.24
2019-02-15T20:06:26.816Z,48.23
2019-02-15T20:08:52.865Z,48.19
2019-02-15T20:11:18.873Z,48.23
2019-02-15T20:13:44.862Z,48.31
2019-02-15T20:16:10.877Z,48.27
2019-02-15T20:18:36.868Z,48.32
2019-02-15T20:21:02.876Z,48.36
2019-02-15T20:23:28.892Z,48.43
2019-02-15T20:25:54.966Z,48.44
2019-02-15T20:28:20.958Z,49.23
2019-02-15T20:30:46.955Z,48.83
2019-02-15T20:33:12.961Z,48.65
2019-02-15T20:35:39.040Z,48.58
2019-02-15T20:38:05.068Z,48.60
2019-02-15T20:40:31.118Z,48.63
2019-02-15T20:42:57.153Z,48.65
2019-02-15T20:45:23.198Z,48.62
2019-02-15T20:47:49.318Z,48.61
2019-02-15T20:50:15.402Z,48.93
2019-02-15T20:52:41.464Z,49.23
2019-02-15T20:55:07.440Z,48.76
2019-02-15T20:57:33.606Z,48.76
2019-02-15T20:59:59.723Z,48.95
2019-02-15T21:02:25.731Z,48.90
2019-02-15T21:04:51.894Z,48.93
2019-02-15T21:07:17.910Z,48.89
2019-02-15T21:09:43.945Z,49.20
2019-02-15T21:12:09.961Z,49.10
2019-02-15T21:14:36.078Z,49.23
2019-02-15T21:17:02.065Z,49.14
2019-02-15T21:19:28.065Z,49.25
2019-02-15T21:21:54.149Z,49.42
2019-02-15T21:24:20.140Z,49.40
2019-02-15T21:26:46.136Z,49.41
2019-02-15T21:29:12.168Z,49.32
2019-02-15T21:31:38.222Z,49.31
2019-02-15T21:34:04.231Z,49.50
2019-02-15T21:36:30.460Z,49.47
2019-02-15T21:38:58.043Z,49.60
2019-02-15T21:41:24.264Z,49.66
2019-02-15T21:43:50.331Z,49.52
2019-02-15T21:46:16.380Z,49.62
2019-02-15T21:48:42.456Z,49.86
2019-02-15T21:51:08.456Z,49.72
2019-02-15T21:53:34.535Z,49.71
2019-02-15T21:56:00.647Z,49.82
2019-02-15T21:58:26.628Z,50.25
2019-02-15T22:00:52.711Z,49.83
2019-02-15T22:03:18.721Z,49.54
2019-02-15T22:05:44.792Z,49.45
2019-02-15T22:08:10.772Z,49.78
2019-02-15T22:10:36.780Z,49.86
2019-02-15T22:13:02.842Z,49.79
2019-02-15T22:15:28.894Z,49.75
2019-02-15T22:17:54.910Z,49.84
2019-02-15T22:20:26.602Z,49.77
2019-02-15T22:22:48.690Z,49.83
2019-02-15T22:25:14.686Z,49.82
2019-02-15T22:27:40.718Z,49.81
2019-02-15T22:30:06.740Z,49.75
2019-02-15T22:32:32.825Z,50.02
2019-02-15T22:34:58.843Z,49.83
2019-02-15T22:37:24.889Z,49.95
2019-02-15T22:39:50.986Z,49.98
2019-02-15T22:42:17.027Z,49.85
2019-02-15T22:44:43.191Z,50.37
2019-02-15T22:47:09.183Z,49.96
2019-02-15T22:49:43.170Z,49.70
2019-02-15T22:52:02.911Z,49.82
2019-02-15T22:54:28.958Z,49.72
2019-02-15T22:56:54.972Z,49.76
2019-02-15T22:59:20.956Z,49.66
2019-02-15T23:01:46.989Z,49.77
2019-02-15T23:04:13.266Z,50.57
2019-02-15T23:06:39.256Z,49.69
2019-02-15T23:09:05.243Z,50.02
2019-02-15T23:11:31.254Z,50.18
2019-02-15T23:13:57.240Z,50.46
2019-02-15T23:16:23.252Z,50.45
2019-02-15T23:18:49.247Z,50.14
2019-02-15T23:21:15.269Z,50.27
2019-02-15T23:23:41.341Z,49.80
2019-02-15T23:26:07.496Z,50.19
2019-02-15T23:28:33.486Z,50.22
2019-02-15T23:30:59.463Z,49.90
2019-02-15T23:33:25.467Z,50.02
2019-02-15T23:35:51.446Z,49.65
2019-02-15T23:38:17.458Z,49.58
2019-02-15T23:40:43.493Z,49.55
2019-02-15T23:43:09.483Z,49.47
2019-02-15T23:45:35.509Z,49.48
2019-02-15T23:48:01.650Z,49.42
2019-02-15T23:50:27.656Z,49.65
2019-02-15T23:52:53.656Z,50.07
2019-02-15T23:55:19.677Z,49.50
2019-02-15T23:57:45.672Z,49.87
